createdAt,value
2019-01-31T00:00:19.510Z,8.00
2019-01-31T00:01:19.538Z,8.00
2019-01-31T00:02:19.504Z,8.00
2019-01-31T00:03:19.675Z,8.00
2019-01-31T00:04:19.466Z,8.00
2019-01-31T00:05:19.455Z,8.00
2019-01-31T00:06:19.444Z,8.00
2019-01-31T00:07:19.747Z,8.00
2019-01-31T00:08:19.512Z,8.00
2019-01-31T00:09:19.719Z,8.00
2019-01-31T00:10:19.413Z,8.00
2019-01-31T00:11:19.397Z,8.00
2019-01-31T00:12:19.407Z,8.00
2019-01-31T00:13:19.381Z,8.00
2019-01-31T00:14:19.686Z,8.00
2019-01-31T00:15:19.498Z,8.00
2019-01-31T00:16:19.355Z,8.00
2019-01-31T00:17:19.334Z,8.00
2019-01-31T00:18:19.319Z,8.00
2019-01-31T00:19:19.312Z,8.00
2019-01-31T00:20:19.307Z,8.00
2019-01-31T00:21:19.783Z,8.00
2019-01-31T00:22:19.277Z,8.00
2019-01-31T00:23:19.267Z,8.00
2019-01-31T00:24:19.258Z,8.00
2019-01-31T00:25:19.253Z,8.00
2019-01-31T00:26:19.234Z,8.00
2019-01-31T00:27:19.355Z,8.00
2019-01-31T00:28:19.648Z,8.00
2019-01-31T00:29:19.278Z,8.00
2019-01-31T00:30:19.196Z,8.00
2019-01-31T00:31:19.193Z,8.00
2019-01-31T00:32:19.175Z,8.00
2019-01-31T00:33:19.291Z,8.00
2019-01-31T00:34:19.153Z,8.00
2019-01-31T00:35:19.153Z,8.00
2019-01-31T00:36:19.132Z,8.00
2019-01-31T00:37:19.131Z,8.00
2019-01-31T00:38:19.110Z,8.00
2019-01-31T00:39:19.241Z,8.00
2019-01-31T00:40:19.371Z,8.00
2019-01-31T00:41:19.082Z,8.00
2019-01-31T00:42:19.936Z,8.00
2019-01-31T00:43:19.058Z,8.00
2019-01-31T00:44:19.048Z,8.00
2019-01-31T00:45:19.158Z,8.00
2019-01-31T00:46:19.026Z,8.00
2019-01-31T00:47:19.117Z,8.00
2019-01-31T00:48:19.008Z,8.00
2019-01-31T00:49:18.998Z,8.00
2019-01-31T00:50:18.986Z,8.00
2019-01-31T00:51:19.165Z,8.00
2019-01-31T00:52:19.264Z,8.00
2019-01-31T00:53:18.962Z,8.00
2019-01-31T00:54:18.949Z,8.00
2019-01-31T00:55:18.936Z,8.00
2019-01-31T00:56:19.433Z,8.00
2019-01-31T00:57:18.941Z,8.00
2019-01-31T00:58:18.905Z,8.00
2019-01-31T00:59:19.171Z,8.00
2019-01-31T01:00:18.883Z,8.00
2019-01-31T01:01:18.872Z,8.00
2019-01-31T01:02:18.863Z,12.00
2019-01-31T01:03:18.880Z,8.00
2019-01-31T01:04:18.842Z,8.00
2019-01-31T01:05:18.834Z,12.00
2019-01-31T01:06:19.100Z,8.00
2019-01-31T01:07:18.812Z,8.00
2019-01-31T01:08:18.816Z,8.00
2019-01-31T01:09:19.932Z,8.00
2019-01-31T01:10:18.780Z,8.00
2019-01-31T01:11:18.769Z,8.00
2019-01-31T01:12:18.761Z,8.00
2019-01-31T01:13:19.026Z,8.00
2019-01-31T01:14:18.761Z,8.00
2019-01-31T01:15:18.754Z,8.00
2019-01-31T01:16:18.719Z,8.00
2019-01-31T01:17:18.706Z,8.00
2019-01-31T01:18:18.697Z,8.00
2019-01-31T01:19:18.687Z,8.00
2019-01-31T01:20:18.972Z,8.00
2019-01-31T01:21:18.693Z,8.00
2019-01-31T01:22:18.660Z,8.00
2019-01-31T01:23:18.645Z,8.00
2019-01-31T01:24:18.636Z,8.00
2019-01-31T01:25:18.626Z,8.00
2019-01-31T01:26:18.621Z,8.00
2019-01-31T01:27:18.959Z,8.00
2019-01-31T01:28:18.611Z,8.00
2019-01-31T01:29:18.584Z,8.00
2019-01-31T01:30:18.581Z,8.00
2019-01-31T01:31:18.564Z,8.00
2019-01-31T01:32:18.556Z,8.00
2019-01-31T01:33:18.571Z,8.00
2019-01-31T01:34:18.841Z,8.00
2019-01-31T01:35:18.523Z,8.00
2019-01-31T01:36:18.528Z,8.00
2019-01-31T01:37:18.504Z,8.00
2019-01-31T01:38:18.497Z,8.00
2019-01-31T01:39:19.459Z,8.00
2019-01-31T01:40:18.477Z,8.00
2019-01-31T01:41:18.739Z,8.00
2019-01-31T01:42:18.452Z,8.00
2019-01-31T01:43:18.443Z,8.00
2019-01-31T01:44:18.432Z,8.00
2019-01-31T01:45:18.625Z,8.00
2019-01-31T01:46:18.412Z,8.00
2019-01-31T01:47:18.407Z,8.00
2019-01-31T01:48:18.670Z,8.00
2019-01-31T01:49:18.386Z,12.00
2019-01-31T01:50:18.379Z,8.00
2019-01-31T01:51:18.389Z,12.00
2019-01-31T01:52:18.352Z,8.00
2019-01-31T01:53:18.341Z,8.00
2019-01-31T01:54:18.332Z,8.00
2019-01-31T01:55:18.620Z,8.00
2019-01-31T01:56:18.314Z,12.00
2019-01-31T01:57:18.328Z,8.00
2019-01-31T01:58:18.292Z,8.00
2019-01-31T01:59:18.282Z,8.00
2019-01-31T02:00:18.271Z,8.00
2019-01-31T02:01:18.265Z,8.00
2019-01-31T02:02:18.531Z,8.00
2019-01-31T02:03:18.310Z,8.00
2019-01-31T02:04:18.230Z,8.00
2019-01-31T02:05:18.220Z,8.00
2019-01-31T02:06:18.214Z,8.00
2019-01-31T02:07:18.211Z,8.00
2019-01-31T02:08:18.193Z,12.00
2019-01-31T02:09:29.794Z,8.00
2019-01-31T02:10:19.181Z,8.00
2019-01-31T02:11:18.160Z,8.00
2019-01-31T02:12:18.153Z,8.00
2019-01-31T02:13:18.139Z,8.00
2019-01-31T02:14:18.133Z,8.00
2019-01-31T02:15:18.152Z,8.00
2019-01-31T02:16:18.387Z,8.00
2019-01-31T02:17:18.202Z,8.00
2019-01-31T02:18:18.089Z,8.00
2019-01-31T02:19:18.079Z,8.00
2019-01-31T02:20:18.069Z,8.00
2019-01-31T02:21:18.101Z,8.00
2019-01-31T02:22:18.050Z,8.00
2019-01-31T02:23:18.340Z,8.00
2019-01-31T02:24:18.026Z,8.00
2019-01-31T02:25:18.018Z,8.00
2019-01-31T02:26:18.008Z,8.00
2019-01-31T02:27:18.029Z,8.00
2019-01-31T02:28:17.989Z,8.00
2019-01-31T02:29:17.977Z,12.00
2019-01-31T02:30:18.252Z,8.00
2019-01-31T02:31:17.960Z,8.00
2019-01-31T02:32:17.946Z,8.00
2019-01-31T02:33:17.965Z,8.00
2019-01-31T02:34:18.025Z,8.00
2019-01-31T02:35:17.916Z,8.00
2019-01-31T02:36:17.906Z,8.00
2019-01-31T02:37:18.179Z,8.00
2019-01-31T02:38:17.885Z,8.00
2019-01-31T02:39:17.919Z,8.00
2019-01-31T02:40:17.866Z,8.00
2019-01-31T02:41:17.854Z,8.00
2019-01-31T02:42:17.845Z,8.00
2019-01-31T02:43:17.853Z,8.00
2019-01-31T02:44:18.101Z,8.00
2019-01-31T02:45:17.850Z,8.00
2019-01-31T02:46:17.802Z,8.00
2019-01-31T02:47:17.791Z,8.00
2019-01-31T02:48:17.781Z,8.00
2019-01-31T02:49:17.773Z,8.00
2019-01-31T02:50:17.792Z,8.00
2019-01-31T02:51:18.089Z,8.00
2019-01-31T02:52:17.739Z,8.00
2019-01-31T02:53:17.730Z,8.00
2019-01-31T02:54:17.721Z,8.00
2019-01-31T02:55:17.710Z,8.00
2019-01-31T02:56:17.701Z,8.00
2019-01-31T02:57:17.753Z,8.00
2019-01-31T02:58:17.971Z,8.00
2019-01-31T02:59:17.676Z,8.00
2019-01-31T03:01:33.835Z,8.00
2019-01-31T03:02:33.857Z,8.00
2019-01-31T03:03:33.955Z,8.00
2019-01-31T03:04:34.061Z,8.00
2019-01-31T03:05:33.777Z,8.00
2019-01-31T03:06:33.766Z,8.00
2019-01-31T03:07:33.761Z,12.00
2019-01-31T03:08:33.775Z,8.00
2019-01-31T03:09:33.734Z,12.00
2019-01-31T03:10:33.724Z,8.00
2019-01-31T03:11:34.001Z,8.00
2019-01-31T03:12:33.703Z,8.00
2019-01-31T03:13:33.692Z,8.00
2019-01-31T03:14:33.735Z,8.00
2019-01-31T03:15:33.672Z,8.00
2019-01-31T03:16:33.668Z,8.00
2019-01-31T03:17:33.655Z,8.00
2019-01-31T03:18:33.930Z,8.00
2019-01-31T03:19:33.631Z,8.00
2019-01-31T03:20:33.689Z,8.00
2019-01-31T03:21:33.612Z,8.00
2019-01-31T03:22:33.602Z,8.00
2019-01-31T03:23:33.591Z,8.00
2019-01-31T03:24:33.622Z,8.00
2019-01-31T03:25:33.854Z,8.00
2019-01-31T03:26:33.592Z,8.00
2019-01-31T03:27:33.551Z,8.00
2019-01-31T03:28:33.545Z,8.00
2019-01-31T03:29:33.530Z,8.00
2019-01-31T03:30:33.524Z,8.00
2019-01-31T03:31:33.511Z,8.00
2019-01-31T03:32:34.087Z,8.00
2019-01-31T03:33:33.491Z,8.00
2019-01-31T03:34:33.479Z,8.00
2019-01-31T03:35:33.467Z,8.00
2019-01-31T03:36:33.463Z,8.00
2019-01-31T03:37:33.453Z,8.00
2019-01-31T03:38:33.471Z,8.00
2019-01-31T03:39:33.709Z,12.00
2019-01-31T03:40:33.441Z,8.00
2019-01-31T03:41:33.410Z,12.00
2019-01-31T03:42:33.412Z,12.00
2019-01-31T03:43:33.402Z,8.00
2019-01-31T03:44:33.408Z,8.00
2019-01-31T03:45:33.378Z,8.00
2019-01-31T03:46:33.638Z,8.00
2019-01-31T03:47:33.346Z,8.00
2019-01-31T03:48:33.334Z,12.00
2019-01-31T03:49:33.324Z,12.00
2019-01-31T03:50:33.511Z,8.00
2019-01-31T03:51:33.313Z,8.00
2019-01-31T03:52:33.321Z,12.00
2019-01-31T03:53:33.565Z,8.00
2019-01-31T03:54:33.286Z,12.00
2019-01-31T03:55:33.262Z,12.00
2019-01-31T03:56:33.279Z,12.00
2019-01-31T03:57:33.253Z,12.00
2019-01-31T03:58:33.234Z,12.00
2019-01-31T03:59:33.221Z,12.00
2019-01-31T04:00:33.494Z,12.00
2019-01-31T04:01:33.201Z,12.00
2019-01-31T04:02:33.218Z,12.00
2019-01-31T04:03:33.186Z,12.00
2019-01-31T04:04:33.186Z,12.00
2019-01-31T04:05:33.161Z,12.00
2019-01-31T04:06:33.150Z,12.00
2019-01-31T04:07:33.450Z,12.00
2019-01-31T04:08:33.180Z,12.00
2019-01-31T04:09:33.119Z,12.00
2019-01-31T04:10:33.110Z,12.00
2019-01-31T04:11:34.056Z,12.00
2019-01-31T04:12:33.087Z,12.00
2019-01-31T04:13:34.069Z,12.00
2019-01-31T04:14:33.398Z,12.00
2019-01-31T04:15:33.555Z,12.00
2019-01-31T04:16:33.071Z,12.00
2019-01-31T04:17:33.036Z,12.00
2019-01-31T04:18:33.034Z,12.00
2019-01-31T04:19:33.019Z,12.00
2019-01-31T04:20:33.035Z,12.00
2019-01-31T04:21:33.272Z,12.00
2019-01-31T04:22:32.984Z,12.00
2019-01-31T04:23:32.982Z,12.00
2019-01-31T04:24:32.973Z,12.00
2019-01-31T04:25:32.955Z,12.00
2019-01-31T04:26:33.014Z,12.00
2019-01-31T04:27:32.935Z,12.00
2019-01-31T04:28:33.251Z,12.00
2019-01-31T04:29:32.912Z,12.00
2019-01-31T04:30:32.902Z,12.00
2019-01-31T04:31:32.898Z,12.00
2019-01-31T04:32:32.908Z,12.00
2019-01-31T04:33:32.874Z,12.00
2019-01-31T04:34:32.866Z,12.00
2019-01-31T04:35:33.145Z,12.00
2019-01-31T04:36:32.861Z,12.00
2019-01-31T04:37:32.831Z,12.00
2019-01-31T04:38:32.847Z,12.00
2019-01-31T04:39:32.810Z,12.00
2019-01-31T04:40:32.800Z,12.00
2019-01-31T04:41:32.792Z,12.00
2019-01-31T04:42:33.061Z,12.00
2019-01-31T04:43:32.769Z,12.00
2019-01-31T04:44:32.808Z,12.00
2019-01-31T04:45:32.747Z,12.00
2019-01-31T04:46:32.737Z,12.00
2019-01-31T04:47:32.731Z,12.00
2019-01-31T04:48:32.747Z,12.00
2019-01-31T04:49:32.999Z,12.00
2019-01-31T04:50:32.722Z,12.00
2019-01-31T04:51:32.694Z,12.00
2019-01-31T04:52:32.680Z,12.00
2019-01-31T04:53:32.680Z,12.00
2019-01-31T04:54:32.654Z,12.00
2019-01-31T04:55:32.647Z,12.00
2019-01-31T04:56:32.944Z,12.00
2019-01-31T04:57:32.625Z,12.00
2019-01-31T04:58:32.613Z,12.00
2019-01-31T04:59:32.602Z,12.00
2019-01-31T05:00:32.594Z,12.00
2019-01-31T05:01:32.582Z,12.00
2019-01-31T05:02:32.643Z,12.00
2019-01-31T05:03:32.839Z,12.00
2019-01-31T05:04:32.553Z,12.00
2019-01-31T05:05:32.544Z,12.00
2019-01-31T05:06:32.536Z,12.00
2019-01-31T05:07:32.520Z,12.00
2019-01-31T05:08:32.537Z,12.00
2019-01-31T05:09:32.501Z,12.00
2019-01-31T05:10:42.717Z,12.00
2019-01-31T05:11:33.487Z,12.00
2019-01-31T05:12:32.472Z,12.00
2019-01-31T05:13:32.458Z,12.00
2019-01-31T05:14:32.474Z,12.00
2019-01-31T05:15:32.441Z,12.00
2019-01-31T05:16:32.440Z,12.00
2019-01-31T05:17:32.878Z,12.00
2019-01-31T05:18:32.417Z,36.00
2019-01-31T05:19:32.397Z,12.00
2019-01-31T05:20:32.460Z,16.00
2019-01-31T05:21:32.376Z,0.00
2019-01-31T05:22:32.380Z,12.00
2019-01-31T05:23:32.450Z,16.00
2019-01-31T05:24:32.622Z,12.00
2019-01-31T05:25:32.336Z,12.00
2019-01-31T05:26:32.350Z,12.00
2019-01-31T05:27:32.314Z,12.00
2019-01-31T05:28:32.304Z,12.00
2019-01-31T05:29:32.298Z,12.00
2019-01-31T05:30:32.286Z,12.00
2019-01-31T05:31:32.273Z,12.00
2019-01-31T05:32:32.292Z,12.00
2019-01-31T05:33:32.257Z,12.00
2019-01-31T05:34:32.260Z,12.00
2019-01-31T05:35:32.258Z,12.00
2019-01-31T05:36:32.223Z,12.00
2019-01-31T05:37:32.211Z,12.00
2019-01-31T05:38:32.275Z,12.00
2019-01-31T05:39:32.196Z,12.00
2019-01-31T05:40:32.184Z,12.00
2019-01-31T05:41:32.171Z,12.00
2019-01-31T05:42:32.159Z,12.00
2019-01-31T05:43:32.172Z,12.00
2019-01-31T05:44:32.276Z,12.00
2019-01-31T05:45:32.155Z,12.00
2019-01-31T05:46:32.121Z,12.00
2019-01-31T05:47:32.115Z,12.00
2019-01-31T05:48:32.098Z,12.00
2019-01-31T05:49:32.087Z,12.00
2019-01-31T05:50:32.110Z,12.00
2019-01-31T05:51:32.097Z,12.00
2019-01-31T05:52:32.063Z,12.00
2019-01-31T05:53:32.048Z,12.00
2019-01-31T05:54:32.036Z,12.00
2019-01-31T05:55:32.308Z,12.00
2019-01-31T05:56:32.071Z,12.00
2019-01-31T05:57:32.007Z,12.00
2019-01-31T05:58:31.995Z,12.00
2019-01-31T05:59:31.989Z,12.00
2019-01-31T06:00:31.974Z,12.00
2019-01-31T06:01:31.964Z,12.00
2019-01-31T06:02:31.984Z,12.00
2019-01-31T06:03:31.946Z,12.00
2019-01-31T06:04:31.938Z,12.00
2019-01-31T06:05:31.927Z,12.00
2019-01-31T06:06:32.538Z,12.00
2019-01-31T06:07:32.182Z,12.00
2019-01-31T06:08:31.922Z,8.00
2019-01-31T06:09:31.888Z,12.00
2019-01-31T06:10:33.593Z,8.00
2019-01-31T06:11:31.861Z,12.00
2019-01-31T06:12:31.850Z,12.00
2019-01-31T06:13:31.841Z,12.00
2019-01-31T06:14:31.887Z,12.00
2019-01-31T06:15:31.824Z,12.00
2019-01-31T06:16:31.814Z,12.00
2019-01-31T06:17:31.800Z,8.00
2019-01-31T06:18:31.788Z,8.00
2019-01-31T06:19:31.781Z,12.00
2019-01-31T06:20:31.800Z,12.00
2019-01-31T06:21:31.775Z,12.00
2019-01-31T06:22:31.747Z,12.00
2019-01-31T06:23:31.738Z,12.00
2019-01-31T06:24:31.762Z,12.00
2019-01-31T06:25:31.716Z,8.00
2019-01-31T06:26:31.735Z,8.00
2019-01-31T06:27:31.760Z,8.00
2019-01-31T06:28:31.687Z,8.00
2019-01-31T06:29:31.706Z,12.00
2019-01-31T06:30:31.810Z,12.00
2019-01-31T06:31:32.110Z,12.00
2019-01-31T06:32:31.720Z,12.00
2019-01-31T06:33:31.745Z,12.00
2019-01-31T06:34:31.640Z,12.00
2019-01-31T06:35:31.616Z,12.00
2019-01-31T06:36:31.606Z,16.00
2019-01-31T06:37:31.594Z,16.00
2019-01-31T06:38:31.613Z,12.00
2019-01-31T06:39:31.578Z,16.00
2019-01-31T06:40:32.664Z,16.00
2019-01-31T06:41:31.552Z,16.00
2019-01-31T06:42:31.546Z,20.00
2019-01-31T06:43:31.533Z,20.00
2019-01-31T06:44:31.567Z,20.00
2019-01-31T06:45:31.511Z,20.00
2019-01-31T06:46:31.501Z,24.00
2019-01-31T06:47:31.496Z,20.00
2019-01-31T06:48:34.025Z,24.00
2019-01-31T06:49:31.469Z,28.00
2019-01-31T06:50:31.666Z,32.00
2019-01-31T06:51:31.449Z,32.00
2019-01-31T06:52:32.027Z,40.00
2019-01-31T06:53:31.435Z,44.00
2019-01-31T06:54:31.435Z,48.00
2019-01-31T06:55:31.416Z,56.00
2019-01-31T06:56:31.427Z,60.00
2019-01-31T06:57:31.387Z,68.00
2019-01-31T06:58:32.487Z,76.00
2019-01-31T06:59:31.373Z,84.00
2019-01-31T07:00:31.360Z,96.00
2019-01-31T07:01:31.350Z,100.00
2019-01-31T07:02:31.383Z,112.00
2019-01-31T07:03:31.327Z,124.00
2019-01-31T07:04:31.316Z,136.00
2019-01-31T07:05:31.305Z,140.00
2019-01-31T07:06:31.301Z,152.00
2019-01-31T07:07:31.290Z,164.00
2019-01-31T07:08:31.316Z,180.00
2019-01-31T07:09:31.265Z,192.00
2019-01-31T07:10:31.260Z,208.00
2019-01-31T07:11:31.251Z,224.00
2019-01-31T07:12:31.239Z,244.00
2019-01-31T07:13:33.865Z,260.00
2019-01-31T07:14:31.244Z,276.00
2019-01-31T07:15:31.204Z,292.00
2019-01-31T07:16:31.193Z,312.00
2019-01-31T07:17:31.195Z,332.00
2019-01-31T07:18:31.187Z,352.00
2019-01-31T07:19:31.174Z,376.00
2019-01-31T07:20:31.188Z,396.00
2019-01-31T07:21:31.154Z,416.00
2019-01-31T07:22:31.130Z,440.00
2019-01-31T07:23:31.121Z,464.00
2019-01-31T07:24:31.133Z,488.00
2019-01-31T07:25:31.125Z,512.00
2019-01-31T07:26:31.156Z,536.00
2019-01-31T07:27:31.085Z,560.00
2019-01-31T07:28:31.070Z,588.00
2019-01-31T07:29:32.017Z,616.00
2019-01-31T07:30:31.053Z,640.00
2019-01-31T07:31:31.052Z,672.00
2019-01-31T07:32:31.059Z,704.00
2019-01-31T07:33:31.018Z,732.00
2019-01-31T07:34:31.008Z,768.00
2019-01-31T07:35:30.998Z,800.00
2019-01-31T07:36:31.015Z,840.00
2019-01-31T07:37:30.977Z,876.00
2019-01-31T07:38:30.996Z,916.00
2019-01-31T07:39:30.962Z,952.00
2019-01-31T07:40:30.949Z,988.00
2019-01-31T07:41:40.997Z,1024.00
2019-01-31T07:42:31.926Z,1060.00
2019-01-31T07:43:30.920Z,1092.00
2019-01-31T07:44:32.080Z,1124.00
2019-01-31T07:45:30.897Z,1156.00
2019-01-31T07:46:30.890Z,1192.00
2019-01-31T07:47:30.877Z,1232.00
2019-01-31T07:48:30.879Z,1280.00
2019-01-31T07:49:30.861Z,1320.00
2019-01-31T07:50:30.968Z,1352.00
2019-01-31T07:51:30.866Z,1388.00
2019-01-31T07:52:30.932Z,1416.00
2019-01-31T07:53:30.943Z,1444.00
2019-01-31T07:54:30.861Z,1468.00
2019-01-31T07:55:30.883Z,1480.00
2019-01-31T07:56:31.480Z,1500.00
2019-01-31T07:57:30.809Z,1496.00
2019-01-31T07:58:30.763Z,1508.00
2019-01-31T07:59:31.132Z,1512.00
2019-01-31T08:00:30.895Z,1520.00
2019-01-31T08:01:30.757Z,1588.00
2019-01-31T08:02:30.993Z,1540.00
2019-01-31T08:03:30.724Z,1560.00
2019-01-31T08:04:30.756Z,1584.00
2019-01-31T08:05:30.723Z,1608.00
2019-01-31T08:06:30.683Z,1744.00
2019-01-31T08:07:30.680Z,1656.00
2019-01-31T08:08:30.701Z,1680.00
2019-01-31T08:09:30.651Z,1692.00
2019-01-31T08:10:30.689Z,1724.00
2019-01-31T08:11:30.630Z,1756.00
2019-01-31T08:12:30.665Z,1792.00
2019-01-31T08:13:30.715Z,1804.00
2019-01-31T08:14:30.651Z,1832.00
2019-01-31T08:15:30.625Z,1864.00
2019-01-31T08:16:30.577Z,1880.00
2019-01-31T08:17:30.571Z,1908.00
2019-01-31T08:18:30.557Z,1884.00
2019-01-31T08:19:30.567Z,1896.00
2019-01-31T08:20:30.730Z,1932.00
2019-01-31T08:21:30.549Z,1960.00
2019-01-31T08:22:30.529Z,1980.00
2019-01-31T08:23:30.511Z,1992.00
2019-01-31T08:24:30.496Z,2016.00
2019-01-31T08:25:30.489Z,2016.00
2019-01-31T08:26:30.526Z,2032.00
2019-01-31T08:27:30.469Z,2048.00
2019-01-31T08:28:30.494Z,2080.00
2019-01-31T08:29:30.467Z,2064.00
2019-01-31T08:30:30.437Z,2084.00
2019-01-31T08:31:30.436Z,2116.00
2019-01-31T08:32:30.628Z,2152.00
2019-01-31T08:33:30.490Z,2188.00
2019-01-31T08:34:30.406Z,2252.00
2019-01-31T08:35:30.415Z,2300.00
2019-01-31T08:36:30.378Z,2356.00
2019-01-31T08:37:30.394Z,2432.00
2019-01-31T08:38:30.442Z,2540.00
2019-01-31T08:39:30.343Z,2656.00
2019-01-31T08:40:30.334Z,2772.00
2019-01-31T08:41:30.322Z,2920.00
2019-01-31T08:42:30.312Z,3048.00
2019-01-31T08:43:30.515Z,3188.00
2019-01-31T08:44:30.728Z,3440.00
2019-01-31T08:45:30.282Z,3608.00
2019-01-31T08:46:30.284Z,3688.00
2019-01-31T08:47:30.305Z,3668.00
2019-01-31T08:48:30.252Z,3624.00
2019-01-31T08:49:30.243Z,3644.00
2019-01-31T08:50:30.312Z,3612.00
2019-01-31T08:51:30.227Z,3644.00
2019-01-31T08:52:30.217Z,3796.00
2019-01-31T08:53:30.200Z,3964.00
2019-01-31T08:54:30.190Z,4148.00
2019-01-31T08:55:30.780Z,4300.00
2019-01-31T08:56:30.332Z,4400.00
2019-01-31T08:57:30.174Z,4636.00
2019-01-31T08:58:30.151Z,4844.00
2019-01-31T08:59:30.143Z,4900.00
2019-01-31T09:00:30.208Z,5012.00
2019-01-31T09:01:30.216Z,5192.00
2019-01-31T09:02:30.283Z,5324.00
2019-01-31T09:03:30.395Z,5212.00
2019-01-31T09:04:30.137Z,5172.00
2019-01-31T09:05:30.369Z,5184.00
2019-01-31T09:06:30.125Z,4920.00
2019-01-31T09:07:30.074Z,4664.00
2019-01-31T09:08:31.499Z,4484.00
2019-01-31T09:09:30.055Z,3848.00
2019-01-31T09:10:30.026Z,3840.00
2019-01-31T09:11:31.000Z,4152.00
2019-01-31T09:12:30.045Z,3824.00
2019-01-31T09:13:30.036Z,3652.00
2019-01-31T09:14:30.588Z,3568.00
2019-01-31T09:15:29.980Z,3668.00
2019-01-31T09:16:29.965Z,3532.00
2019-01-31T09:17:29.953Z,3468.00
2019-01-31T09:18:29.949Z,3324.00
2019-01-31T09:19:30.504Z,3168.00
2019-01-31T09:20:30.052Z,3224.00
2019-01-31T09:21:29.960Z,3508.00
2019-01-31T09:22:30.066Z,3852.00
2019-01-31T09:23:30.473Z,4004.00
2019-01-31T09:24:30.278Z,4020.00
2019-01-31T09:25:30.417Z,4140.00
2019-01-31T09:26:34.010Z,4336.00
2019-01-31T09:27:29.850Z,4316.00
2019-01-31T09:28:29.843Z,4332.00
2019-01-31T09:29:29.829Z,4420.00
2019-01-31T09:30:29.853Z,4612.00
2019-01-31T09:31:30.296Z,4896.00
2019-01-31T09:32:29.903Z,5232.00
2019-01-31T09:33:29.786Z,4896.00
2019-01-31T09:34:29.784Z,4960.00
2019-01-31T09:35:29.821Z,5304.00
2019-01-31T09:36:29.770Z,5624.00
2019-01-31T09:37:29.763Z,5924.00
2019-01-31T09:38:30.418Z,6720.00
2019-01-31T09:39:29.727Z,7352.00
2019-01-31T09:40:29.828Z,7624.00
2019-01-31T09:41:29.772Z,7904.00
2019-01-31T09:42:29.763Z,7696.00
2019-01-31T09:43:29.807Z,7220.00
2019-01-31T09:44:30.153Z,6764.00
2019-01-31T09:45:29.698Z,6620.00
2019-01-31T09:46:29.680Z,5956.00
2019-01-31T09:47:31.667Z,5592.00
2019-01-31T09:48:29.684Z,5548.00
2019-01-31T09:49:29.625Z,5760.00
2019-01-31T09:50:29.674Z,6252.00
2019-01-31T09:51:30.952Z,6232.00
2019-01-31T09:52:29.627Z,5624.00
2019-01-31T09:53:29.599Z,5448.00
2019-01-31T09:54:29.842Z,5256.00
2019-01-31T09:55:29.617Z,5176.00
2019-01-31T09:56:29.590Z,4756.00
2019-01-31T09:57:29.962Z,4568.00
2019-01-31T09:58:30.027Z,4604.00
2019-01-31T09:59:29.529Z,4612.00
2019-01-31T10:00:29.567Z,4668.00
2019-01-31T10:01:29.506Z,4752.00
2019-01-31T10:02:29.526Z,4780.00
2019-01-31T10:03:29.482Z,4784.00
2019-01-31T10:04:29.473Z,5164.00
2019-01-31T10:05:29.461Z,4988.00
2019-01-31T10:06:29.567Z,5420.00
2019-01-31T10:07:29.538Z,5416.00
2019-01-31T10:08:29.782Z,5152.00
2019-01-31T10:09:29.476Z,5280.00
2019-01-31T10:10:30.552Z,5124.00
2019-01-31T10:11:29.483Z,4664.00
2019-01-31T10:12:37.906Z,4656.00
2019-01-31T10:13:30.593Z,4616.00
2019-01-31T10:14:29.475Z,4524.00
2019-01-31T10:15:29.677Z,4440.00
2019-01-31T10:16:29.586Z,4332.00
2019-01-31T10:17:29.349Z,4296.00
2019-01-31T10:18:29.384Z,4204.00
2019-01-31T10:19:31.028Z,4056.00
2019-01-31T10:20:29.545Z,3832.00
2019-01-31T10:21:29.476Z,3596.00
2019-01-31T10:22:29.494Z,3448.00
2019-01-31T10:23:30.027Z,3404.00
2019-01-31T10:24:29.461Z,3468.00
2019-01-31T10:25:29.579Z,3548.00
2019-01-31T10:26:29.234Z,3712.00
2019-01-31T10:27:29.252Z,4012.00
2019-01-31T10:28:29.459Z,4404.00
2019-01-31T10:29:29.746Z,4892.00
2019-01-31T10:30:29.371Z,5492.00
2019-01-31T10:31:29.569Z,6240.00
2019-01-31T10:32:29.202Z,7144.00
2019-01-31T10:33:29.171Z,8072.00
2019-01-31T10:34:29.155Z,8872.00
2019-01-31T10:35:29.148Z,9428.00
2019-01-31T10:36:29.139Z,9952.00
2019-01-31T10:37:29.255Z,10384.00
2019-01-31T10:38:29.999Z,10740.00
2019-01-31T10:39:30.096Z,10988.00
2019-01-31T10:40:29.138Z,11168.00
2019-01-31T10:41:29.982Z,11132.00
2019-01-31T10:42:29.371Z,10972.00
2019-01-31T10:43:29.175Z,10768.00
2019-01-31T10:44:29.049Z,10520.00
2019-01-31T10:45:29.070Z,10344.00
2019-01-31T10:46:29.043Z,10112.00
2019-01-31T10:47:29.060Z,9716.00
2019-01-31T10:48:29.092Z,9036.00
2019-01-31T10:49:29.066Z,8272.00
2019-01-31T10:50:28.991Z,7052.00
2019-01-31T10:51:28.991Z,5740.00
2019-01-31T10:52:28.976Z,4724.00
2019-01-31T10:53:29.488Z,4044.00
2019-01-31T10:54:28.982Z,3636.00
2019-01-31T10:55:30.439Z,3396.00
2019-01-31T10:56:29.078Z,3308.00
2019-01-31T10:57:28.981Z,3344.00
2019-01-31T10:58:28.974Z,3596.00
2019-01-31T10:59:29.302Z,3872.00
2019-01-31T11:00:28.975Z,3988.00
2019-01-31T11:01:29.124Z,4092.00
2019-01-31T11:02:28.914Z,4264.00
2019-01-31T11:03:28.884Z,4264.00
2019-01-31T11:04:28.846Z,4316.00
2019-01-31T11:05:28.840Z,4580.00
2019-01-31T11:06:28.827Z,4900.00
2019-01-31T11:07:28.924Z,5084.00
2019-01-31T11:08:28.798Z,5288.00
2019-01-31T11:09:28.787Z,5388.00
2019-01-31T11:10:28.775Z,5560.00
2019-01-31T11:11:28.854Z,5856.00
2019-01-31T11:12:28.815Z,5920.00
2019-01-31T11:13:29.002Z,5716.00
2019-01-31T11:14:29.193Z,5396.00
2019-01-31T11:15:28.910Z,5224.00
2019-01-31T11:16:28.710Z,5296.00
2019-01-31T11:17:28.700Z,5428.00
2019-01-31T11:18:28.837Z,5556.00
2019-01-31T11:19:28.805Z,5700.00
2019-01-31T11:20:28.681Z,5788.00
2019-01-31T11:21:28.735Z,5828.00
2019-01-31T11:22:28.698Z,5732.00
2019-01-31T11:23:28.728Z,5564.00
2019-01-31T11:24:28.631Z,5372.00
2019-01-31T11:25:28.938Z,5236.00
2019-01-31T11:26:28.643Z,5068.00
2019-01-31T11:27:28.601Z,4840.00
2019-01-31T11:28:28.589Z,4556.00
2019-01-31T11:29:28.713Z,4276.00
2019-01-31T11:30:28.885Z,4032.00
2019-01-31T11:31:28.665Z,3788.00
2019-01-31T11:32:28.936Z,3540.00
2019-01-31T11:33:28.625Z,3344.00
2019-01-31T11:34:33.143Z,3184.00
2019-01-31T11:35:28.547Z,3076.00
2019-01-31T11:36:29.191Z,3024.00
2019-01-31T11:37:29.938Z,3068.00
2019-01-31T11:38:28.717Z,3200.00
2019-01-31T11:39:28.977Z,3408.00
2019-01-31T11:40:28.643Z,3748.00
2019-01-31T11:41:29.377Z,4216.00
2019-01-31T11:42:30.286Z,4696.00
2019-01-31T11:43:33.758Z,5108.00
2019-01-31T11:44:29.607Z,5408.00
2019-01-31T11:45:29.128Z,5644.00
2019-01-31T11:46:28.710Z,5752.00
2019-01-31T11:47:28.502Z,5764.00
2019-01-31T11:48:28.379Z,5708.00
2019-01-31T11:49:28.686Z,5600.00
2019-01-31T11:50:28.369Z,5500.00
2019-01-31T11:51:28.347Z,5348.00
2019-01-31T11:52:28.359Z,5128.00
2019-01-31T11:53:28.404Z,4940.00
2019-01-31T11:54:28.314Z,4796.00
2019-01-31T11:55:28.595Z,4748.00
2019-01-31T11:56:29.077Z,4800.00
2019-01-31T11:57:28.340Z,4900.00
2019-01-31T11:58:28.303Z,5088.00
2019-01-31T11:59:28.706Z,5296.00
2019-01-31T12:00:28.352Z,5492.00
2019-01-31T12:01:28.275Z,5504.00
2019-01-31T12:02:28.233Z,5440.00
2019-01-31T12:03:28.219Z,5468.00
2019-01-31T12:04:28.209Z,5752.00
2019-01-31T12:05:28.213Z,6648.00
2019-01-31T12:06:29.782Z,7812.00
2019-01-31T12:07:28.217Z,8576.00
2019-01-31T12:08:28.211Z,9868.00
2019-01-31T12:09:28.164Z,10648.00
2019-01-31T12:10:28.147Z,10908.00
2019-01-31T12:11:28.325Z,9324.00
2019-01-31T12:12:28.129Z,9988.00
2019-01-31T12:13:28.723Z,10096.00
2019-01-31T12:14:28.122Z,11824.00
2019-01-31T12:15:28.102Z,17216.00
2019-01-31T12:16:31.049Z,22240.00
2019-01-31T12:17:28.610Z,18976.00
2019-01-31T12:18:28.095Z,15436.00
2019-01-31T12:19:28.111Z,19776.00
2019-01-31T12:20:28.052Z,24960.00
2019-01-31T12:21:28.039Z,25120.00
2019-01-31T12:22:28.126Z,20448.00
2019-01-31T12:23:28.423Z,12300.00
2019-01-31T12:24:28.262Z,13876.00
2019-01-31T12:25:28.025Z,13956.00
2019-01-31T12:26:28.585Z,26080.00
2019-01-31T12:27:27.979Z,14796.00
2019-01-31T12:28:28.067Z,13180.00
2019-01-31T12:29:27.951Z,11580.00
2019-01-31T12:30:27.939Z,9096.00
2019-01-31T12:31:28.027Z,8084.00
2019-01-31T12:32:27.925Z,7436.00
2019-01-31T12:33:30.741Z,6440.00
2019-01-31T12:34:27.949Z,5604.00
2019-01-31T12:35:29.965Z,5192.00
2019-01-31T12:36:28.063Z,5044.00
2019-01-31T12:37:28.415Z,5080.00
2019-01-31T12:38:36.551Z,5260.00
2019-01-31T12:39:27.917Z,5276.00